Time;durP1;ratioP1;P1;durP2;ratioP2;P2;SDS_P1;SDS_P2;PMS_P1;PMS_P2;Temp;Humidity;BMP_temperature;BMP_pressure;BME280_temperature;BME280_humidity;BME280_pressure;Samples;Min_cycle;Max_cycle;Signal;HPM_P1;HPM_P2
2022/01/28 00:02:09;;;;;;;21.33;14.70;;;;;;;-2.45;82.35;99338.63;5073779;28;20086;-66
2022/01/28 00:04:35;;;;;;;17.52;13.27;;;;;;;-2.60;82.92;99311.94;5073230;28;20037;-64
2022/01/28 00:07:00;;;;;;;17.23;12.03;;;;;;;-2.47;82.76;99324.03;5073383;28;20037;-63
2022/01/28 00:09:26;;;;;;;19.60;13.30;;;;;;;-2.43;82.93;99328.06;5073612;28;20096;-64
2022/01/28 00:11:54;;;;;;;15.53;12.53;;;;;;;-2.49;82.57;99316.34;5073668;28;20051;-64
2022/01/28 00:14:30;;;;;;;16.15;10.65;;;;;;;-2.42;82.56;99320.13;5073459;28;20185;-63
2022/01/28 00:38:44;;;;;;;17.25;10.50;;;;;;;-2.42;82.21;99317.53;5072383;28;20043;-65
2022/01/28 00:41:13;;;;;;;16.50;12.00;;;;;;;-2.40;82.37;99326.06;5072195;28;20041;-64
2022/01/28 00:43:38;;;;;;;24.17;12.85;;;;;;;-2.45;81.96;99309.13;5072066;28;20048;-64
2022/01/28 00:46:04;;;;;;;16.00;11.30;;;;;;;-2.52;82.22;99300.94;5071998;28;20039;-64
2022/01/28 00:48:32;;;;;;;15.93;10.83;;;;;;;-2.50;82.39;99302.47;5071821;28;20032;-65
2022/01/28 00:50:57;;;;;;;17.05;11.68;;;;;;;-2.40;81.85;99313.03;5072232;28;20033;-65
2022/01/28 00:53:23;;;;;;;17.80;11.77;;;;;;;-2.46;81.82;99299.63;5072052;28;20044;-65
2022/01/28 00:55:49;;;;;;;14.10;9.03;;;;;;;-2.39;82.29;99301.66;5054150;28;20110;-66
2022/01/28 00:58:14;;;;;;;13.93;9.40;;;;;;;-2.41;81.81;99293.13;5071974;28;20049;-64
2022/01/28 01:00:41;;;;;;;17.03;11.73;;;;;;;-2.44;81.88;99282.09;5071774;28;20183;-65
2022/01/28 01:03:07;;;;;;;16.23;8.95;;;;;;;-2.40;81.74;99294.78;5072047;28;20401;-64
2022/01/28 01:05:34;;;;;;;10.27;6.78;;;;;;;-2.46;82.00;99279.59;5072048;28;20044;-65
2022/01/28 01:08:04;;;;;;;11.97;8.30;;;;;;;-2.41;81.81;99290.50;5071983;28;20125;-64
2022/01/28 01:10:30;;;;;;;10.43;7.82;;;;;;;-2.51;81.67;99274.75;5063882;28;20278;-65
2022/01/28 01:13:01;;;;;;;11.73;8.35;;;;;;;-2.48;82.33;99278.91;5071641;28;20178;-63
2022/01/28 01:15:32;;;;;;;10.88;7.88;;;;;;;-2.38;82.46;99289.44;5071488;28;20040;-65
2022/01/28 01:25:42;;;;;;;9.23;7.43;;;;;;;-2.44;82.24;99269.91;5073560;28;20502;-69
2022/01/28 01:28:10;;;;;;;9.90;6.88;;;;;;;-2.41;82.46;99271.44;5071756;28;20044;-64
2022/01/28 01:30:40;;;;;;;12.00;7.07;;;;;;;-2.37;82.66;99278.91;5071763;28;20098;-63
2022/01/28 01:33:05;;;;;;;9.32;7.05;;;;;;;-2.51;82.99;99268.72;5075249;28;20040;-66
2022/01/28 01:35:32;;;;;;;9.03;6.93;;;;;;;-2.55;83.01;99259.47;5057734;28;20028;-64
2022/01/28 01:37:58;;;;;;;10.45;7.68;;;;;;;-2.44;82.42;99277.72;5075603;28;20074;-63
2022/01/28 01:40:30;;;;;;;10.43;6.70;;;;;;;-2.50;83.10;99272.97;5075263;28;20071;-63
2022/01/28 01:43:08;;;;;;;9.02;6.70;;;;;;;-2.42;83.11;99282.81;5057505;28;20279;-65
2022/01/28 01:53:28;;;;;;;8.50;5.47;;;;;;;-2.44;82.70;99282.09;5075346;28;20036;-65
2022/01/28 01:55:55;;;;;;;8.50;6.03;;;;;;;-2.46;82.34;99271.78;5075243;28;20337;-65
2022/01/28 01:58:30;;;;;;;9.15;6.32;;;;;;;-2.33;82.09;99295.97;5075352;28;20064;-63
2022/01/28 02:01:00;;;;;;;8.77;5.77;;;;;;;-2.36;82.46;99291.00;5075230;28;20040;-63
2022/01/28 02:03:27;;;;;;;8.27;6.22;;;;;;;-2.40;82.53;99281.75;5074925;28;20275;-64
2022/01/28 02:05:57;;;;;;;9.20;6.10;;;;;;;-2.29;83.26;99293.97;5075093;28;20028;-63
2022/01/28 02:08:24;;;;;;;9.80;6.23;;;;;;;-2.30;83.15;99294.94;5075402;28;20074;-64
2022/01/28 02:10:50;;;;;;;8.93;6.13;;;;;;;-2.39;82.36;99280.78;5075397;28;20267;-65
2022/01/28 02:13:15;;;;;;;11.03;8.43;;;;;;;-2.42;82.60;99269.78;5075196;28;20119;-65
2022/01/28 02:15:41;;;;;;;8.13;6.27;;;;;;;-2.37;82.80;99278.91;5074868;28;20371;-65
2022/01/28 02:18:06;;;;;;;6.87;5.43;;;;;;;-2.27;82.83;99282.47;5075010;28;20473;-64
2022/01/28 02:20:36;;;;;;;9.93;5.80;;;;;;;-2.29;82.76;99271.34;5075248;28;20040;-63
2022/01/28 02:23:03;;;;;;;7.83;5.33;;;;;;;-2.21;82.26;99284.63;5075041;28;20063;-65
2022/01/28 02:25:31;;;;;;;6.33;5.43;;;;;;;-2.25;82.33;99285.81;5074960;28;20301;-64
2022/01/28 02:28:01;;;;;;;6.80;5.50;;;;;;;-2.34;82.41;99268.22;5074596;28;20614;-64
2022/01/28 02:30:27;;;;;;;8.73;6.30;;;;;;;-2.24;82.18;99284.03;5074771;28;20045;-65
2022/01/28 02:32:58;;;;;;;8.50;7.07;;;;;;;-2.34;81.42;99277.84;5074495;28;20753;-63
2022/01/28 02:35:23;;;;;;;7.67;5.47;;;;;;;-2.38;81.89;99269.41;5074984;28;20082;-65
2022/01/28 02:37:49;;;;;;;10.93;6.30;;;;;;;-2.31;82.47;99286.28;5074543;28;20274;-63
2022/01/28 02:40:14;;;;;;;6.83;4.87;;;;;;;-2.47;82.55;99266.69;5056458;28;20032;-64
2022/01/28 02:42:55;;;;;;;8.20;5.40;;;;;;;-2.39;83.37;99280.78;5074767;28;20057;-66
2022/01/28 02:45:27;;;;;;;6.60;5.47;;;;;;;-2.22;82.88;99292.56;5074985;28;20040;-64
2022/01/28 02:48:00;;;;;;;7.37;5.40;;;;;;;-2.30;83.00;99280.13;5074492;28;20302;-62
2022/01/28 02:50:29;;;;;;;7.40;4.83;;;;;;;-2.40;82.64;99267.88;5074358;28;20364;-65
2022/01/28 02:53:04;;;;;;;8.07;6.07;;;;;;;-2.36;82.26;99283.16;5056420;28;20271;-63
2022/01/28 02:55:35;;;;;;;7.93;5.20;;;;;;;-2.33;82.18;99290.75;5056198;28;20036;-63
2022/01/28 02:58:18;;;;;;;6.57;4.93;;;;;;;-2.43;82.57;99276.75;5074388;28;20262;-64
2022/01/28 03:00:47;;;;;;;5.67;4.80;;;;;;;-2.40;82.39;99273.91;5073835;28;20295;-65
2022/01/28 03:03:14;;;;;;;7.87;5.37;;;;;;;-2.33;82.83;99298.56;5056112;28;20267;-67
2022/01/28 03:05:40;;;;;;;7.55;6.20;;;;;;;-2.38;83.06;99292.06;5073820;28;20314;-63
2022/01/28 03:08:06;;;;;;;8.53;5.87;;;;;;;-2.48;83.11;99267.63;5073453;28;20475;-66
2022/01/28 03:13:13;;;;;;;7.10;5.83;;;;;;;-2.34;82.74;99291.69;5073700;28;20037;-64
2022/01/28 03:15:40;;;;;;;6.47;5.25;;;;;;;-2.25;83.29;99287.59;5066543;28;20269;-65
2022/01/28 03:18:16;;;;;;;8.30;6.85;;;;;;;-2.30;82.81;99282.72;5073253;28;20040;-64
2022/01/28 03:21:18;;;;;;;8.47;5.97;;;;;;;-2.21;82.29;99296.81;5073154;28;20055;-64
2022/01/28 03:23:32;;;;;;;9.73;6.53;;;;;;;-2.29;82.16;99288.78;5064541;28;20649;-64
2022/01/28 03:25:57;;;;;;;10.30;6.17;;;;;;;-2.45;82.37;99260.41;5073514;28;20258;-65
2022/01/28 03:28:23;;;;;;;7.77;6.90;;;;;;;-2.28;83.02;99291.25;5055923;28;20263;-64
2022/01/28 03:30:48;;;;;;;6.77;5.43;;;;;;;-2.31;82.65;99290.66;5073518;28;20123;-64
2022/01/28 03:33:14;;;;;;;6.80;6.10;;;;;;;-2.39;82.44;99269.53;5073550;28;20204;-65
2022/01/28 03:35:39;;;;;;;10.57;7.47;;;;;;;-2.36;83.36;99283.16;5073125;28;20039;-63
2022/01/28 03:38:11;;;;;;;6.87;4.83;;;;;;;-2.36;83.12;99288.38;5073246;28;20025;-65
2022/01/28 03:40:37;;;;;;;8.75;5.75;;;;;;;-2.40;82.86;99283.53;5073308;28;20518;-67
2022/01/28 03:43:04;;;;;;;8.53;6.23;;;;;;;-2.35;83.55;99281.38;5073148;28;20056;-65
2022/01/28 03:45:30;;;;;;;8.27;6.70;;;;;;;-2.22;82.98;99292.56;5073066;28;20040;-64
2022/01/28 03:47:58;;;;;;;6.77;5.63;;;;;;;-2.21;82.64;99295.03;5073692;28;20337;-65
2022/01/28 03:50:24;;;;;;;9.65;6.38;;;;;;;-2.24;82.87;99282.25;5073816;28;20491;-64
2022/01/28 03:52:52;;;;;;;7.80;6.40;;;;;;;-2.13;82.88;99297.06;5073296;28;20037;-66
2022/01/28 03:55:18;;;;;;;9.35;5.18;;;;;;;-2.20;82.15;99299.31;5072104;28;20033;-64
2022/01/28 03:57:43;;;;;;;6.73;5.57;;;;;;;-2.23;82.87;99291.72;5072865;28;20043;-63
2022/01/28 04:00:10;;;;;;;7.30;5.87;;;;;;;-2.26;82.65;99291.97;5072613;28;20066;-63
2022/01/28 04:02:40;;;;;;;8.43;6.00;;;;;;;-2.37;82.37;99272.84;5073130;28;20040;-64
2022/01/28 04:13:25;;;;;;;6.73;5.17;;;;;;;-2.04;81.50;99304.16;5072814;28;20266;-63
2022/01/28 04:16:17;;;;;;;9.53;6.13;;;;;;;-1.95;81.69;99331.34;5072370;28;20262;-64
2022/01/28 04:18:39;;;;;;;12.07;6.40;;;;;;;-2.08;81.68;99313.19;5072204;28;20369;-64
2022/01/28 04:21:04;;;;;;;6.57;5.37;;;;;;;-2.14;81.40;99315.44;5072219;28;20429;-63
2022/01/28 04:23:30;;;;;;;9.63;4.57;;;;;;;-2.07;81.30;99316.63;5072606;28;20093;-64
2022/01/28 04:25:55;;;;;;;6.23;4.40;;;;;;;-2.09;81.54;99324.56;5072337;28;20377;-64
2022/01/28 04:28:23;;;;;;;6.93;4.63;;;;;;;-2.17;80.92;99311.28;5072337;28;20127;-64
2022/01/28 04:30:52;;;;;;;8.10;5.47;;;;;;;-2.16;81.30;99326.00;5072204;28;20171;-63
2022/01/28 04:33:17;;;;;;;10.52;5.07;;;;;;;-2.15;81.80;99321.59;5072051;28;20613;-65
2022/01/28 04:35:46;;;;;;;8.10;5.00;;;;;;;-2.20;81.66;99307.13;5071964;28;20128;-68
2022/01/28 04:41:03;;;;;;;7.93;5.67;;;;;;;-2.12;81.07;99318.75;5072059;28;20079;-65
2022/01/28 04:43:41;;;;;;;6.17;4.40;;;;;;;-2.10;81.33;99332.50;5034490;28;20275;-66
2022/01/28 04:46:14;;;;;;;6.97;5.30;;;;;;;-2.09;80.79;99324.56;5052038;28;20287;-65
2022/01/28 04:58:49;;;;;;;7.70;6.32;;;;;;;-2.04;82.28;99326.81;5045252;28;20487;-64
2022/01/28 05:25:41;;;;;;;9.20;4.97;;;;;;;-2.03;81.28;99338.91;5051469;28;20264;-65
2022/01/28 05:27:50;;;;;;;5.33;4.63;;;;;;;-2.12;81.22;99340.44;5051488;28;20446;-65
2022/01/28 05:30:16;;;;;;;7.97;5.03;;;;;;;-2.09;81.32;99344.59;5034135;28;20405;-65
2022/01/28 05:32:42;;;;;;;6.70;5.20;;;;;;;-2.05;80.94;99356.47;5051732;28;20406;-65
2022/01/28 05:35:08;;;;;;;7.10;5.50;;;;;;;-2.10;81.01;99346.38;5051206;28;20029;-65
2022/01/28 05:37:34;;;;;;;9.70;5.57;;;;;;;-2.06;81.00;99362.63;5051615;28;20267;-65
2022/01/28 05:39:59;;;;;;;9.93;6.00;;;;;;;-2.13;80.78;99341.41;5051159;28;20147;-65
2022/01/28 05:42:25;;;;;;;10.07;7.37;;;;;;;-2.15;81.67;99363.34;5063225;28;20055;-65
2022/01/28 05:44:52;;;;;;;11.00;6.57;;;;;;;-2.13;81.34;99358.84;5053367;28;20119;-65
2022/01/28 05:47:18;;;;;;;8.03;6.10;;;;;;;-2.11;81.69;99370.81;5071308;28;20040;-67
2022/01/28 05:49:44;;;;;;;10.30;5.67;;;;;;;-2.36;82.02;99342.31;5053394;28;20366;-65
2022/01/28 05:52:10;;;;;;;11.60;6.43;;;;;;;-2.28;81.34;99351.22;5069406;28;20086;-67
2022/01/28 05:54:35;;;;;;;11.43;8.23;;;;;;;-2.26;81.84;99354.56;5070942;28;20267;-69
2022/01/28 05:57:01;;;;;;;12.67;7.13;;;;;;;-2.29;81.70;99361.78;5072017;28;20032;-66
2022/01/28 05:59:27;;;;;;;8.23;5.60;;;;;;;-2.24;81.90;99367.47;5071707;28;20077;-66
2022/01/28 06:01:52;;;;;;;10.30;7.40;;;;;;;-2.25;81.65;99361.44;5071241;28;20607;-71
2022/01/28 06:04:21;;;;;;;10.38;7.78;;;;;;;-2.24;81.55;99368.31;5071055;28;20044;-69
2022/01/28 06:06:47;;;;;;;11.57;8.00;;;;;;;-2.34;81.49;99351.66;5071439;28;20036;-70
2022/01/28 06:09:13;;;;;;;11.63;7.20;;;;;;;-2.33;81.70;99363.75;5071444;28;20354;-73
2022/01/28 06:11:39;;;;;;;8.63;6.83;;;;;;;-2.21;81.89;99378.50;5071380;28;20353;-70
2022/01/28 06:14:05;;;;;;;8.67;6.40;;;;;;;-2.22;82.53;99384.66;5073068;28;20036;-73
2022/01/28 06:16:31;;;;;;;10.00;6.73;;;;;;;-2.30;81.75;99368.78;5054006;28;20411;-69
2022/01/28 06:18:57;;;;;;;10.23;6.80;;;;;;;-2.20;81.66;99388.00;5074141;28;20266;-70
2022/01/28 06:21:22;;;;;;;7.87;6.03;;;;;;;-2.70;81.12;99302.28;5056625;28;20032;-67
2022/01/28 06:23:48;;;;;;;11.77;7.17;;;;;;;-2.21;81.44;99386.34;5056592;28;20115;-67
2022/01/28 06:26:14;;;;;;;7.13;6.37;;;;;;;-2.17;81.11;99399.13;5074384;28;20047;-65
2022/01/28 06:28:39;;;;;;;10.10;6.33;;;;;;;-2.22;80.77;99402.94;5056918;28;20391;-64
2022/01/28 06:31:05;;;;;;;12.23;8.07;;;;;;;-2.35;81.93;99396.13;5074693;28;20032;-66
2022/01/28 06:33:30;;;;;;;9.57;7.50;;;;;;;-2.37;81.53;99401.44;5075076;28;20495;-69
2022/01/28 06:35:56;;;;;;;10.47;6.67;;;;;;;-2.72;81.66;99369.34;5076762;28;20119;-68
2022/01/28 06:38:21;;;;;;;8.70;6.63;;;;;;;-3.23;81.37;99299.25;5077195;28;20052;-68
2022/01/28 06:40:49;;;;;;;9.90;6.50;;;;;;;-2.41;81.93;99418.25;5076337;28;20044;-67
2022/01/28 06:43:14;;;;;;;9.77;7.17;;;;;;;-2.42;81.57;99414.00;5076137;28;20074;-74
2022/01/28 06:45:42;;;;;;;10.93;7.63;;;;;;;-2.59;81.76;99393.56;5058633;28;20322;-70
2022/01/28 06:48:16;;;;;;;11.07;6.88;;;;;;;-2.43;82.08;99421.94;5075866;28;20040;-68
2022/01/28 06:50:42;;;;;;;9.48;7.60;;;;;;;-2.38;81.65;99428.47;5076795;28;20037;-71
2022/01/28 06:53:10;;;;;;;11.70;6.88;;;;;;;-2.33;81.28;99428.13;5078055;28;20029;-70
2022/01/28 06:55:36;;;;;;;9.27;7.15;;;;;;;-2.25;80.72;99429.22;5076235;28;20545;-66
2022/01/28 06:58:03;;;;;;;11.93;7.63;;;;;;;-2.45;80.39;99403.78;5075341;28;20051;-67
2022/01/28 07:00:30;;;;;;;10.43;6.63;;;;;;;-2.33;80.71;99425.50;5075129;28;20046;-68
2022/01/28 07:02:56;;;;;;;10.67;7.43;;;;;;;-2.22;81.91;99447.25;5056789;28;20037;-64
2022/01/28 07:05:21;;;;;;;11.67;7.00;;;;;;;-2.20;81.06;99449.75;5074304;28;20289;-63
2022/01/28 07:07:47;;;;;;;9.40;6.60;;;;;;;-2.33;80.74;99426.34;5074250;28;20033;-65
2022/01/28 07:10:13;;;;;;;8.03;6.87;;;;;;;-2.48;80.74;99409.25;5074173;28;20420;-63
2022/01/28 07:12:38;;;;;;;8.87;7.30;;;;;;;-2.22;80.39;99455.09;5056180;28;20105;-66
2022/01/28 07:15:04;;;;;;;15.20;7.20;;;;;;;-2.25;80.02;99450.09;5074105;28;20047;-69
2022/01/28 07:18:01;;;;;;;14.35;7.07;;;;;;;-2.16;80.43;99459.00;5074273;28;20044;-70
2022/01/28 07:20:29;;;;;;;15.40;9.83;;;;;;;-2.28;79.81;99439.06;5073549;28;20032;-70
2022/01/28 07:22:54;;;;;;;9.73;6.83;;;;;;;-2.12;80.42;99464.81;5074021;28;20680;-70
2022/01/28 07:25:20;;;;;;;20.00;10.33;;;;;;;-2.10;80.38;99470.75;5055440;28;20275;-67
2022/01/28 07:27:45;;;;;;;14.93;6.83;;;;;;;-2.08;80.36;99467.09;5055966;28;20040;-70
2022/01/28 07:30:13;;;;;;;15.83;8.10;;;;;;;-2.10;80.00;99455.94;5072290;28;20071;-67
2022/01/28 07:32:38;;;;;;;9.47;7.30;;;;;;;-2.15;80.39;99458.06;5073273;28;20036;-72
2022/01/28 07:35:04;;;;;;;10.17;7.10;;;;;;;-2.11;80.00;99461.28;5073936;28;20314;-71
2022/01/28 07:37:30;;;;;;;10.50;7.17;;;;;;;-2.01;79.97;99478.75;5056612;28;20052;-68
2022/01/28 07:39:55;;;;;;;12.10;8.17;;;;;;;-2.41;79.69;99402.63;5074473;28;20291;-67
2022/01/28 07:42:24;;;;;;;10.33;6.50;;;;;;;-1.93;79.13;99465.13;5073163;28;20514;-72
2022/01/28 07:44:49;;;;;;;10.45;6.22;;;;;;;-1.99;78.98;99469.03;5055545;28;20055;-74
2022/01/28 07:47:15;;;;;;;12.27;6.80;;;;;;;-1.92;78.98;99480.66;5072891;28;20033;-71
2022/01/28 07:49:40;;;;;;;9.23;6.40;;;;;;;-1.94;79.14;99481.72;5072827;28;20356;-66
2022/01/28 07:52:06;;;;;;;9.50;6.80;;;;;;;-1.88;79.01;99478.66;5073083;28;20125;-66
2022/01/28 07:54:32;;;;;;;10.60;6.17;;;;;;;-1.85;78.63;99493.25;5072944;28;20032;-70
2022/01/28 07:56:58;;;;;;;7.97;6.03;;;;;;;-1.78;78.36;99512.72;5073122;28;20417;-71
2022/01/28 07:59:24;;;;;;;9.13;6.10;;;;;;;-1.90;78.58;99504.03;5055522;28;20458;-70
2022/01/28 08:01:49;;;;;;;9.77;5.53;;;;;;;-1.86;79.20;99515.91;5055004;28;20313;-76
2022/01/28 08:04:15;;;;;;;9.30;5.97;;;;;;;-2.05;78.53;99497.31;5072961;28;20032;-71
2022/01/28 08:06:40;;;;;;;11.60;7.60;;;;;;;-1.97;78.96;99523.72;5072747;28;20047;-72
2022/01/28 08:09:06;;;;;;;9.30;6.20;;;;;;;-1.94;78.76;99528.69;5072789;28;20105;-64
2022/01/28 08:11:34;;;;;;;8.53;5.50;;;;;;;-1.91;79.11;99513.63;5072664;28;20029;-66
2022/01/28 08:13:59;;;;;;;10.97;5.17;;;;;;;-1.80;78.33;99536.31;5072509;28;20689;-67
2022/01/28 08:16:25;;;;;;;7.87;5.93;;;;;;;-1.88;79.36;99529.06;5072581;28;20270;-63
2022/01/28 08:18:50;;;;;;;8.07;5.93;;;;;;;-1.78;78.83;99530.97;5073373;28;20045;-72
2022/01/28 08:21:16;;;;;;;8.63;6.33;;;;;;;-1.82;78.50;99532.16;5056182;28;20040;-71
2022/01/28 08:23:42;;;;;;;9.60;5.63;;;;;;;-1.64;78.07;99544.69;5072498;28;20071;-66
2022/01/28 08:26:08;;;;;;;11.07;5.80;;;;;;;-1.56;78.01;99549.31;5072301;28;20495;-69
2022/01/28 08:28:34;;;;;;;7.90;6.43;;;;;;;-1.64;77.82;99544.69;5071069;28;20491;-69
2022/01/28 08:31:00;;;;;;;7.23;4.90;;;;;;;-1.88;77.55;99520.41;5071946;28;20270;-70
2022/01/28 08:33:27;;;;;;;6.57;5.47;;;;;;;-1.75;77.15;99542.03;5072153;28;20467;-70
2022/01/28 08:35:54;;;;;;;8.53;5.37;;;;;;;-1.80;78.02;99544.16;5054417;28;20302;-74
2022/01/28 08:38:36;;;;;;;7.50;5.20;;;;;;;-1.77;78.15;99543.91;5072161;28;20282;-68
2022/01/28 08:41:04;;;;;;;8.00;5.03;;;;;;;-1.75;77.83;99542.03;5071390;28;20328;-70
2022/01/28 08:43:34;;;;;;;6.22;5.25;;;;;;;-1.69;78.19;99553.81;5053228;28;20295;-74
2022/01/28 08:46:04;;;;;;;7.63;5.50;;;;;;;-1.76;77.66;99540.34;5053817;28;20411;-71
2022/01/28 08:48:45;;;;;;;6.93;4.73;;;;;;;-1.79;77.05;99517.09;5072039;28;20286;-70
2022/01/28 08:51:13;;;;;;;8.47;5.43;;;;;;;-1.51;76.73;99548.97;5054123;28;20617;-62
2022/01/28 08:53:44;;;;;;;8.95;5.95;;;;;;;-1.54;77.47;99557.88;5071751;28;20082;-77
2022/01/28 08:56:15;;;;;;;9.00;5.60;;;;;;;-1.40;77.15;99557.69;5054157;28;20040;-71
2022/01/28 08:58:43;;;;;;;7.20;6.23;;;;;;;-1.37;76.83;99560.06;5038213;28;20282;-73
2022/01/28 09:01:10;;;;;;;7.73;5.37;;;;;;;-1.37;76.27;99554.00;5072746;28;20704;-74
2022/01/28 09:03:36;;;;;;;6.40;5.00;;;;;;;-1.43;76.58;99557.09;5054404;28;20120;-72
2022/01/28 09:06:02;;;;;;;8.40;6.10;;;;;;;-1.40;76.11;99572.50;5072671;28;20317;-71
2022/01/28 09:08:30;;;;;;;7.83;6.37;;;;;;;-1.45;76.89;99549.34;5071769;28;20128;-74
2022/01/28 09:11:47;;;;;;;7.80;5.82;;;;;;;-1.44;75.87;99550.19;5071838;28;20656;-75
2022/01/28 09:13:44;;;;;;;6.10;5.07;;;;;;;-1.35;76.67;99565.16;5063697;28;20430;-73
2022/01/28 09:16:10;;;;;;;6.87;5.50;;;;;;;-1.25;76.48;99563.50;5072542;28;20123;-74
2022/01/28 09:18:35;;;;;;;8.60;6.40;;;;;;;-1.32;75.97;99525.75;5072105;28;20068;-71
2022/01/28 09:21:01;;;;;;;8.87;6.53;;;;;;;-0.98;75.18;99574.44;5071523;28;20082;-68
2022/01/28 09:23:32;;;;;;;11.63;6.63;;;;;;;-0.90;75.24;99580.88;5071677;28;20040;-69
2022/01/28 09:25:58;;;;;;;8.37;6.53;;;;;;;-0.85;74.48;99573.53;5053318;28;20040;-72
2022/01/28 09:28:23;;;;;;;6.60;5.47;;;;;;;-0.72;73.99;99572.44;5072230;28;20378;-73
2022/01/28 09:31:26;;;;;;;;;;;;;;;;;;;;;
2022/01/28 09:33:55;;;;;;;11.70;6.30;;;;;;;-1.23;74.10;99522.41;5051955;28;20045;-68
2022/01/28 09:36:23;;;;;;;9.67;6.97;;;;;;;-1.63;75.13;99488.09;5071231;28;20274;-67
2022/01/28 09:38:49;;;;;;;10.17;5.40;;;;;;;-0.84;74.57;99590.88;5035074;28;20641;-67
2022/01/28 09:41:17;;;;;;;5.73;5.13;;;;;;;-0.80;73.83;99584.44;5072143;28;20051;-67
2022/01/28 09:43:44;;;;;;;8.47;4.90;;;;;;;-0.47;73.61;99592.25;5072394;28;20040;-72
2022/01/28 09:46:10;;;;;;;6.40;5.03;;;;;;;-0.70;72.63;99562.69;5072981;28;20427;-65
2022/01/28 09:48:37;;;;;;;9.30;5.87;;;;;;;-0.59;73.49;99611.50;5054207;28;20795;-69
2022/01/28 09:51:03;;;;;;;8.27;4.60;;;;;;;-0.79;73.59;99597.41;5071461;28;20263;-62
2022/01/28 09:53:29;;;;;;;13.37;6.73;;;;;;;-0.93;73.92;99569.69;5073260;28;20269;-63
2022/01/28 09:55:56;;;;;;;8.37;5.90;;;;;;;-0.62;74.10;99596.91;5075361;28;20032;-65
2022/01/28 09:58:22;;;;;;;6.97;5.83;;;;;;;-0.44;73.28;99599.88;5075225;28;20255;-64
2022/01/28 10:00:48;;;;;;;6.83;5.00;;;;;;;-0.33;71.94;99594.59;5075158;28;20286;-64
2022/01/28 10:03:16;;;;;;;5.77;4.87;;;;;;;-0.20;71.57;99596.25;5075315;28;20277;-64
2022/01/28 10:05:49;;;;;;;6.80;5.43;;;;;;;-0.34;72.42;99590.31;5075204;28;20036;-64
2022/01/28 10:08:23;;;;;;;8.87;4.77;;;;;;;-0.22;71.07;99595.56;5057867;28;20281;-64
2022/01/28 10:11:14;;;;;;;6.83;5.20;;;;;;;-0.01;72.10;99627.84;5074989;28;20366;-63
2022/01/28 10:13:47;;;;;;;6.73;5.10;;;;;;;0.19;70.94;99619.22;5075373;28;20762;-62
2022/01/28 10:16:30;;;;;;;5.87;5.27;;;;;;;0.23;70.37;99602.28;5074888;28;20259;-60
2022/01/28 10:19:04;;;;;;;6.50;4.87;;;;;;;0.37;69.66;99624.75;5074836;28;20259;-65
2022/01/28 10:21:31;;;;;;;10.10;5.60;;;;;;;0.31;69.62;99633.13;5074754;28;20290;-64
2022/01/28 10:24:06;;;;;;;9.53;5.50;;;;;;;0.04;70.39;99638.78;5074468;28;20298;-61
2022/01/28 10:26:56;;;;;;;10.70;7.13;;;;;;;-0.33;71.24;99602.44;5056926;28;20285;-60
2022/01/28 10:29:30;;;;;;;10.17;5.93;;;;;;;-0.66;71.44;99576.34;5064157;28;20354;-63
2022/01/28 10:31:58;;;;;;;6.97;5.83;;;;;;;-0.41;72.63;99638.03;5056623;28;20274;-62
2022/01/28 10:34:34;;;;;;;7.97;5.68;;;;;;;-0.36;72.50;99654.19;5074944;28;20348;-62
2022/01/28 10:37:11;;;;;;;6.87;4.93;;;;;;;-0.57;72.68;99656.72;5074649;28;20543;-63
2022/01/28 10:39:52;;;;;;;6.33;5.27;;;;;;;-0.67;73.45;99650.50;5056244;28;20782;-62
2022/01/28 10:42:32;;;;;;;10.60;5.30;;;;;;;-1.14;73.40;99581.81;5056147;28;20313;-61
2022/01/28 10:44:59;;;;;;;11.17;7.17;;;;;;;-0.87;74.44;99643.34;5056437;28;20337;-62
2022/01/28 10:47:50;;;;;;;11.47;7.57;;;;;;;-0.81;73.86;99671.66;5056970;28;20306;-63
2022/01/28 10:50:19;;;;;;;7.07;6.03;;;;;;;-0.81;73.91;99671.66;5074729;28;20266;-61
2022/01/28 10:52:45;;;;;;;8.52;5.45;;;;;;;-1.05;74.25;99663.88;5074089;28;20267;-63
2022/01/28 10:55:19;;;;;;;8.83;6.30;;;;;;;-1.10;75.72;99668.63;5074204;28;20041;-62
2022/01/28 10:58:01;;;;;;;8.20;5.90;;;;;;;-1.19;75.56;99670.13;5074172;28;20255;-61
2022/01/28 11:00:29;;;;;;;8.30;6.20;;;;;;;-1.36;76.17;99662.75;5074050;28;20294;-61
2022/01/28 11:02:58;;;;;;;9.30;6.68;;;;;;;-1.63;76.54;99629.88;5073756;28;20263;-61
2022/01/28 11:05:25;;;;;;;11.65;5.90;;;;;;;-1.37;76.84;99671.53;5073673;28;20041;-62
2022/01/28 11:07:52;;;;;;;12.27;6.60;;;;;;;-1.45;76.64;99674.69;5074005;28;20033;-62
2022/01/28 11:10:17;;;;;;;8.67;5.57;;;;;;;-1.56;77.08;99672.88;5074209;28;20741;-63
2022/01/28 11:12:44;;;;;;;8.70;5.70;;;;;;;-1.61;78.44;99689.81;5073809;28;20634;-62
2022/01/28 11:15:10;;;;;;;10.77;5.80;;;;;;;-1.93;78.62;99646.00;5073772;28;20279;-62
2022/01/28 11:17:36;;;;;;;9.37;6.03;;;;;;;-1.62;78.23;99688.16;5073570;28;20041;-62
2022/01/28 11:20:04;;;;;;;8.57;5.93;;;;;;;-1.52;79.34;99709.19;5055034;28;20295;-64
2022/01/28 11:23:23;;;;;;;6.57;5.47;;;;;;;-1.55;79.74;99699.81;5055749;28;20761;-76
2022/01/28 11:26:16;;;;;;;7.70;5.53;;;;;;;-1.37;78.65;99703.69;4962781;28;20292;-71
2022/01/28 11:28:47;;;;;;;8.03;5.53;;;;;;;-1.29;78.01;99710.97;4994181;28;20034;-73
2022/01/28 11:31:14;;;;;;;9.77;8.37;;;;;;;-1.22;77.65;99717.38;5056790;28;20267;-76
2022/01/28 11:33:51;;;;;;;8.73;7.07;;;;;;;-1.28;78.64;99720.47;5074491;28;20271;-68
2022/01/28 11:36:36;;;;;;;10.37;7.60;;;;;;;-1.19;79.17;99722.38;5073669;28;20278;-71
2022/01/28 11:39:35;;;;;;;8.73;6.23;;;;;;;-1.15;78.71;99715.19;5059379;28;20279;-72
2022/01/28 11:42:17;;;;;;;9.80;7.20;;;;;;;-1.05;77.66;99724.81;5073483;28;20315;-69
2022/01/28 11:44:45;;;;;;;7.57;6.60;;;;;;;-1.18;77.95;99726.66;5074128;28;20108;-71
2022/01/28 11:47:23;;;;;;;7.53;5.90;;;;;;;-1.24;77.63;99719.28;5074689;28;20271;-71
2022/01/28 11:50:11;;;;;;;13.57;7.37;;;;;;;-1.28;78.21;99742.19;5056070;28;20384;-69
2022/01/28 11:52:48;;;;;;;12.55;6.80;;;;;;;-1.28;78.95;99743.97;5055987;28;20292;-67
2022/01/28 11:55:28;;;;;;;10.70;7.73;;;;;;;-1.22;79.26;99747.91;5073032;28;20032;-67
2022/01/28 11:58:00;;;;;;;12.07;9.70;;;;;;;-1.25;79.53;99744.56;5055993;28;20278;-73
2022/01/28 12:06:54;;;;;;;8.03;5.97;;;;;;;-1.36;79.66;99751.53;5191287;22;20100;-67
2022/01/28 12:09:27;;;;;;;6.20;5.10;;;;;;;-1.33;79.32;99749.53;5072484;28;20271;-69
2022/01/28 12:11:52;;;;;;;6.83;6.10;;;;;;;-1.34;79.87;99749.66;5054588;28;20701;-72
2022/01/28 12:15:11;;;;;;;7.03;6.00;;;;;;;-1.38;79.33;99763.88;5072092;28;20626;-72
2022/01/28 12:17:38;;;;;;;7.40;6.03;;;;;;;-1.35;79.90;99763.66;5072601;28;20265;-67
2022/01/28 12:20:13;;;;;;;9.30;7.50;;;;;;;-1.27;78.91;99777.81;5054735;28;20860;-77
2022/01/28 12:23:01;;;;;;;10.13;7.17;;;;;;;-1.30;79.01;99785.03;5072887;28;20286;-73
2022/01/28 12:25:35;;;;;;;11.27;9.03;;;;;;;-1.46;79.19;99782.69;5073284;28;20305;-67
2022/01/28 12:28:22;;;;;;;9.73;8.33;;;;;;;-1.50;80.18;99793.47;5054461;28;20271;-70
2022/01/28 12:30:56;;;;;;;11.40;8.73;;;;;;;-1.80;79.80;99758.16;5071366;28;20354;-72
2022/01/28 12:33:23;;;;;;;13.47;8.83;;;;;;;-1.73;79.59;99790.75;5073317;28;20299;-69
2022/01/28 12:35:52;;;;;;;8.17;6.60;;;;;;;-1.76;79.22;99779.66;5054758;28;20780;-79
2022/01/28 12:38:22;;;;;;;8.15;5.97;;;;;;;-1.76;79.51;99785.72;5072586;28;20816;-69
2022/01/28 12:40:52;;;;;;;6.10;5.50;;;;;;;-1.75;79.53;99776.94;5072118;28;20498;-73
2022/01/28 12:43:22;;;;;;;7.00;5.67;;;;;;;-1.59;79.10;99801.03;5053853;28;20297;-77
2022/01/28 12:46:04;;;;;;;8.00;5.23;;;;;;;-1.78;77.66;99774.53;5072925;28;20622;-72
2022/01/28 12:48:30;;;;;;;6.20;4.43;;;;;;;-1.78;77.94;99798.03;5071617;28;20314;-70
2022/01/28 12:50:57;;;;;;;4.97;4.40;;;;;;;-1.99;77.85;99802.16;5054261;28;20283;-68
2022/01/28 12:53:30;;;;;;;6.40;4.55;;;;;;;-1.96;77.35;99807.16;5071850;28;20055;-70
2022/01/28 12:55:57;;;;;;;6.27;4.47;;;;;;;-1.85;78.00;99816.84;5071740;28;20032;-74
2022/01/28 12:58:34;;;;;;;7.55;4.57;;;;;;;-1.82;77.82;99819.25;5071880;28;20271;-68
2022/01/28 13:01:05;;;;;;;5.57;3.80;;;;;;;-1.83;77.01;99835.84;5071970;28;20082;-71
2022/01/28 13:03:36;;;;;;;5.80;4.68;;;;;;;-1.96;78.10;99831.47;5071861;28;20270;-65
2022/01/28 13:06:40;;;;;;;7.10;4.90;;;;;;;-1.93;78.14;99846.94;5070710;28;20056;-67
2022/01/28 13:09:13;;;;;;;4.72;4.22;;;;;;;-1.95;78.36;99843.59;5071025;28;20406;-69
2022/01/28 13:11:50;;;;;;;9.50;5.90;;;;;;;-1.87;78.23;99856.09;5070578;28;20040;-67
2022/01/28 13:14:33;;;;;;;5.90;4.53;;;;;;;-1.91;77.74;99870.31;5071183;28;20552;-68
2022/01/28 13:17:03;;;;;;;5.45;4.88;;;;;;;-2.02;77.70;99846.72;5070467;28;20045;-65